Terminal Aerodrome Forecast
Issued by NWS

Current Version | Previous Version | Text Only | Print | Product List | Glossary On
Versions: 1 2 3 4 5 6 7 8 9 10 11 12 13 14 15 16 17
205
FTPA31 PHFO 272028 AAA
TAFHKO
TAF AMD
PHKO 272028Z 2720/2818 18011KT P6SM FEW030 SCT050 BKN250
     FM280500 15008KT P6SM SCT030 BKN060
     FM281000 VRB06KT P6SM FEW030=

USA.gov is the U.S. government's official web portal to all federal, state and local government web resources and services.